Time;durP1;ratioP1;P1;durP2;ratioP2;P2;SDS_P1;SDS_P2;PMS_P1;PMS_P2;Temp;Humidity;BMP_temperature;BMP_pressure;BME280_temperature;BME280_humidity;BME280_pressure;Samples;Min_cycle;Max_cycle;Signal;HPM_P1;HPM_P2
2022/12/10 00:00:00;;;;;;;;;;;;;;;;;;5093186;28;1494;-42
2022/12/10 00:02:27;;;;;;;;;;;;;;;;;;5092963;28;2125;-42
2022/12/10 00:04:54;;;;;;;;;;;;;;;;;;5074885;28;2085;-41
2022/12/10 00:07:21;;;;;;;;;;;;;;;;;;5093079;28;1706;-41
2022/12/10 00:09:48;;;;;;;;;;;;;;;;;;5092636;28;2168;-41
2022/12/10 00:12:15;;;;;;;;;;;;;;;;;;5092875;28;1975;-41
2022/12/10 00:14:42;;;;;;;;;;;;;;;;;;5092725;28;2102;-41
2022/12/10 00:17:09;;;;;;;;;;;;;;;;;;5091509;28;1797;-44
2022/12/10 00:19:38;;;;;;;;;;;;;;;;;;5092146;28;1700;-41
2022/12/10 00:22:05;;;;;;;;;;;;;;;;;;5092353;28;2280;-43
2022/12/10 00:24:32;;;;;;;;;;;;;;;;;;5092459;28;1442;-41
2022/12/10 00:26:59;;;;;;;;;;;;;;;;;;5092581;28;1714;-41
2022/12/10 00:29:27;;;;;;;;;;;;;;;;;;5092644;28;1906;-42
2022/12/10 00:31:55;;;;;;;;;;;;;;;;;;5092749;28;2075;-41
2022/12/10 00:34:22;;;;;;;;;;;;;;;;;;5092223;28;1825;-41
2022/12/10 00:36:49;;;;;;;;;;;;;;;;;;5092412;28;1867;-41
2022/12/10 00:39:18;;;;;;;;;;;;;;;;;;5092428;28;1785;-44
2022/12/10 00:41:45;;;;;;;;;;;;;;;;;;5092449;28;1966;-42
2022/12/10 00:44:13;;;;;;;;;;;;;;;;;;5092335;28;1910;-42
2022/12/10 00:46:40;;;;;;;;;;;;;;;;;;5074187;28;1475;-42
2022/12/10 00:49:07;;;;;;;;;;;;;;;;;;5092142;28;1651;-41
2022/12/10 00:51:34;;;;;;;;;;;;;;;;;;5074009;28;2006;-42
2022/12/10 00:54:02;;;;;;;;;;;;;;;;;;5091658;28;1861;-42
2022/12/10 00:56:32;;;;;;;;;;;;;;;;;;5074270;28;1706;-41
2022/12/10 00:58:59;;;;;;;;;;;;;;;;;;5092082;28;1660;-42
2022/12/10 01:01:37;;;;;;;;;;;;;;;;;;5092255;28;2383;-43
2022/12/10 01:04:09;;;;;;;;;;;;;;;;;;5073636;28;1372;-41
2022/12/10 01:06:49;;;;;;;;;;;;;;;;;;5091874;28;1972;-41
2022/12/10 01:09:21;;;;;;;;;;;;;;;;;;5091745;28;1953;-42
2022/12/10 01:11:48;;;;;;;;;;;;;;;;;;5091672;28;1896;-42
2022/12/10 01:14:23;;;;;;;;;;;;;;;;;;5091646;28;1887;-42
2022/12/10 01:16:53;;;;;;;;;;;;;;;;;;5091599;28;2132;-41
2022/12/10 01:19:20;;;;;;;;;;;;;;;;;;5091642;28;1669;-41
2022/12/10 01:21:51;;;;;;;;;;;;;;;;;;5092771;28;2050;-42
2022/12/10 01:24:18;;;;;;;;;;;;;;;;;;5112048;28;1397;-42
2022/12/10 01:26:45;;;;;;;;;;;;;;;;;;5111811;28;2051;-41
2022/12/10 01:29:12;;;;;;;;;;;;;;;;;;5111971;28;1898;-42
2022/12/10 01:31:39;;;;;;;;;;;;;;;;;;5093544;28;1915;-42
2022/12/10 01:34:08;;;;;;;;;;;;;;;;;;5111727;28;1918;-41
2022/12/10 01:36:37;;;;;;;;;;;;;;;;;;5111965;28;1540;-41
2022/12/10 01:39:05;;;;;;;;;;;;;;;;;;5111428;28;2091;-42
2022/12/10 01:41:34;;;;;;;;;;;;;;;;;;5111790;28;1963;-41
2022/12/10 01:44:07;;;;;;;;;;;;;;;;;;5112010;28;1525;-41
2022/12/10 01:46:55;;;;;;;;;;;;;;;;;;5111577;28;2100;-42
2022/12/10 01:49:25;;;;;;;;;;;;;;;;;;5111487;28;1965;-41
2022/12/10 01:51:54;;;;;;;;;;;;;;;;;;5111491;28;1911;-42
2022/12/10 01:54:26;;;;;;;;;;;;;;;;;;5111546;28;1267;-41
2022/12/10 01:57:04;;;;;;;;;;;;;;;;;;5111598;28;1851;-41
2022/12/10 01:59:32;;;;;;;;;;;;;;;;;;5093917;28;1572;-43
2022/12/10 02:01:59;;;;;;;;;;;;;;;;;;5111711;28;1747;-42
2022/12/10 02:04:32;;;;;;;;;;;;;;;;;;5112091;28;2002;-42
2022/12/10 02:07:14;;;;;;;;;;;;;;;;;;5097145;28;2201;-41
2022/12/10 02:09:47;;;;;;;;;;;;;;;;;;5114374;28;1774;-42
2022/12/10 02:12:15;;;;;;;;;;;;;;;;;;5097294;28;2084;-42
2022/12/10 02:15:03;;;;;;;;;;;;;;;;;;5115488;28;1283;-41
2022/12/10 02:17:34;;;;;;;;;;;;;;;;;;5115622;28;1943;-41
2022/12/10 02:20:11;;;;;;;;;;;;;;;;;;5110804;28;1585;-41
2022/12/10 02:23:01;;;;;;;;;;;;;;;;;;5076610;28;1814;-41
2022/12/10 02:25:40;;;;;;;;;;;;;;;;;;5094858;28;1483;-41
2022/12/10 02:28:17;;;;;;;;;;;;;;;;;;5076659;28;1927;-42
2022/12/10 02:30:45;;;;;;;;;;;;;;;;;;5094911;28;2417;-42
2022/12/10 02:33:14;;;;;;;;;;;;;;;;;;5076214;28;2056;-42
2022/12/10 02:35:41;;;;;;;;;;;;;;;;;;5076505;28;1716;-41
2022/12/10 02:38:13;;;;;;;;;;;;;;;;;;5094598;28;2178;-41
2022/12/10 02:40:45;;;;;;;;;;;;;;;;;;5093495;28;1645;-43
2022/12/10 02:43:13;;;;;;;;;;;;;;;;;;5093238;28;1733;-42
2022/12/10 02:45:43;;;;;;;;;;;;;;;;;;5094377;28;1745;-41
2022/12/10 02:48:13;;;;;;;;;;;;;;;;;;5094546;28;1329;-42
2022/12/10 02:50:42;;;;;;;;;;;;;;;;;;5093071;28;2038;-42
2022/12/10 02:53:09;;;;;;;;;;;;;;;;;;5093706;28;1982;-42
2022/12/10 02:55:49;;;;;;;;;;;;;;;;;;5076072;28;1864;-42
2022/12/10 02:58:30;;;;;;;;;;;;;;;;;;5076088;28;1428;-42
2022/12/10 03:01:10;;;;;;;;;;;;;;;;;;5075862;28;1970;-43
2022/12/10 03:03:44;;;;;;;;;;;;;;;;;;5094352;28;1976;-42
2022/12/10 03:06:21;;;;;;;;;;;;;;;;;;5075853;28;1968;-41
2022/12/10 03:08:56;;;;;;;;;;;;;;;;;;5093717;28;1810;-41
2022/12/10 03:11:23;;;;;;;;;;;;;;;;;;5094313;28;1936;-41
2022/12/10 03:13:59;;;;;;;;;;;;;;;;;;5094165;28;1917;-41
2022/12/10 03:16:30;;;;;;;;;;;;;;;;;;5093781;28;2041;-41
2022/12/10 03:19:00;;;;;;;;;;;;;;;;;;5093878;28;1177;-41
2022/12/10 03:21:31;;;;;;;;;;;;;;;;;;5110757;28;1630;-42
2022/12/10 03:23:58;;;;;;;;;;;;;;;;;;5114399;28;1826;-41
2022/12/10 03:26:26;;;;;;;;;;;;;;;;;;5114251;28;2055;-41
2022/12/10 03:28:56;;;;;;;;;;;;;;;;;;5114092;28;2058;-41
2022/12/10 03:31:24;;;;;;;;;;;;;;;;;;5113819;28;1885;-41
2022/12/10 03:33:52;;;;;;;;;;;;;;;;;;5093575;28;2000;-41
2022/12/10 03:36:20;;;;;;;;;;;;;;;;;;5075517;28;1458;-43
2022/12/10 03:38:47;;;;;;;;;;;;;;;;;;5093610;28;1587;-42
2022/12/10 03:41:14;;;;;;;;;;;;;;;;;;5093646;28;1384;-41
2022/12/10 03:43:51;;;;;;;;;;;;;;;;;;5093773;28;1684;-43
2022/12/10 03:46:19;;;;;;;;;;;;;;;;;;5093349;28;1787;-42
2022/12/10 03:48:46;;;;;;;;;;;;;;;;;;5093121;28;1856;-43
2022/12/10 03:51:13;;;;;;;;;;;;;;;;;;5093301;28;1611;-41
2022/12/10 03:53:40;;;;;;;;;;;;;;;;;;5093523;28;1979;-42
2022/12/10 03:56:08;;;;;;;;;;;;;;;;;;5093656;28;1439;-41
2022/12/10 03:58:35;;;;;;;;;;;;;;;;;;5092909;28;1695;-42
2022/12/10 04:01:03;;;;;;;;;;;;;;;;;;5093409;28;1552;-42
2022/12/10 04:03:33;;;;;;;;;;;;;;;;;;5093075;28;1502;-41
2022/12/10 04:06:01;;;;;;;;;;;;;;;;;;5093018;28;1864;-42
2022/12/10 04:08:28;;;;;;;;;;;;;;;;;;5092965;28;2108;-41
2022/12/10 04:11:01;;;;;;;;;;;;;;;;;;5092984;28;1847;-44
2022/12/10 04:16:28;;;;;;;;;;;;;;;;;;5092821;28;1510;-41
2022/12/10 04:19:03;;;;;;;;;;;;;;;;;;5092608;28;1846;-41
2022/12/10 04:27:06;;;;;;;;;;;;;;;;;;5107786;28;2136;-40
2022/12/10 04:29:33;;;;;;;;;;;;;;;;;;5112703;28;2011;-41
2022/12/10 04:32:00;;;;;;;;;;;;;;;;;;5112563;28;1452;-40
2022/12/10 04:34:27;;;;;;;;;;;;;;;;;;5094657;28;1907;-41
2022/12/10 04:36:54;;;;;;;;;;;;;;;;;;5112885;28;1579;-49
2022/12/10 04:39:21;;;;;;;;;;;;;;;;;;5113137;28;1494;-40
2022/12/10 04:41:49;;;;;;;;;;;;;;;;;;5112535;28;2120;-41
2022/12/10 04:44:17;;;;;;;;;;;;;;;;;;5113350;28;1587;-41
2022/12/10 04:46:44;;;;;;;;;;;;;;;;;;5112250;28;2277;-40
2022/12/10 04:49:12;;;;;;;;;;;;;;;;;;5112812;28;1813;-41
2022/12/10 04:51:40;;;;;;;;;;;;;;;;;;5112754;28;1453;-40
2022/12/10 04:54:07;;;;;;;;;;;;;;;;;;5112191;28;1981;-41
2022/12/10 04:56:34;;;;;;;;;;;;;;;;;;5112452;28;1672;-40
2022/12/10 04:59:01;;;;;;;;;;;;;;;;;;5112319;28;1963;-40
2022/12/10 05:01:29;;;;;;;;;;;;;;;;;;5112344;28;1701;-40
2022/12/10 05:04:03;;;;;;;;;;;;;;;;;;5112312;28;1985;-41
2022/12/10 05:06:32;;;;;;;;;;;;;;;;;;5111977;28;1710;-39
2022/12/10 05:08:59;;;;;;;;;;;;;;;;;;5112332;28;2166;-40
2022/12/10 05:11:27;;;;;;;;;;;;;;;;;;5112098;28;1967;-41
2022/12/10 05:13:55;;;;;;;;;;;;;;;;;;5112067;28;1902;-41
2022/12/10 05:16:25;;;;;;;;;;;;;;;;;;5111894;28;1962;-41
2022/12/10 05:18:52;;;;;;;;;;;;;;;;;;5112199;28;2151;-41
2022/12/10 05:21:20;;;;;;;;;;;;;;;;;;5111910;28;1995;-41
2022/12/10 05:23:49;;;;;;;;;;;;;;;;;;5112000;28;2106;-41
2022/12/10 05:26:17;;;;;;;;;;;;;;;;;;5112055;28;1677;-41
2022/12/10 05:28:46;;;;;;;;;;;;;;;;;;5112265;28;1805;-40
2022/12/10 05:31:14;;;;;;;;;;;;;;;;;;5105574;28;2536;-40
2022/12/10 05:33:41;;;;;;;;;;;;;;;;;;5091618;28;1973;-41
2022/12/10 05:36:09;;;;;;;;;;;;;;;;;;5091558;28;1736;-41
2022/12/10 05:38:40;;;;;;;;;;;;;;;;;;5090948;28;1287;-40
2022/12/10 05:41:15;;;;;;;;;;;;;;;;;;5090811;28;2294;-40
2022/12/10 05:43:42;;;;;;;;;;;;;;;;;;5091338;28;1800;-40
2022/12/10 05:46:11;;;;;;;;;;;;;;;;;;5091468;28;2080;-40
2022/12/10 05:48:38;;;;;;;;;;;;;;;;;;5091464;28;1685;-40
2022/12/10 05:51:06;;;;;;;;;;;;;;;;;;5091363;28;1229;-40
2022/12/10 05:53:33;;;;;;;;;;;;;;;;;;5091076;28;2229;-40
2022/12/10 05:56:00;;;;;;;;;;;;;;;;;;5091195;28;1922;-40
2022/12/10 05:58:28;;;;;;;;;;;;;;;;;;5091043;28;1798;-40
2022/12/10 06:00:56;;;;;;;;;;;;;;;;;;5091267;28;1515;-40
2022/12/10 06:03:23;;;;;;;;;;;;;;;;;;5091762;28;2150;-40
2022/12/10 06:05:50;;;;;;;;;;;;;;;;;;5090752;28;1860;-40
2022/12/10 06:08:18;;;;;;;;;;;;;;;;;;5091271;28;1805;-40
2022/12/10 06:10:47;;;;;;;;;;;;;;;;;;5091178;28;1702;-40
2022/12/10 06:13:15;;;;;;;;;;;;;;;;;;5091180;28;2068;-39
2022/12/10 06:15:42;;;;;;;;;;;;;;;;;;5091104;28;2018;-41
2022/12/10 06:18:09;;;;;;;;;;;;;;;;;;5090817;28;2141;-40
2022/12/10 06:20:38;;;;;;;;;;;;;;;;;;5100518;28;2183;-40
2022/12/10 06:23:07;;;;;;;;;;;;;;;;;;5111382;28;1963;-41
2022/12/10 06:25:37;;;;;;;;;;;;;;;;;;5111175;28;1456;-40
2022/12/10 06:28:05;;;;;;;;;;;;;;;;;;5111415;28;1589;-39
2022/12/10 06:30:32;;;;;;;;;;;;;;;;;;5110876;28;1911;-40
2022/12/10 06:33:00;;;;;;;;;;;;;;;;;;5111015;28;2061;-39
2022/12/10 06:35:27;;;;;;;;;;;;;;;;;;5111408;28;1482;-40
2022/12/10 06:37:54;;;;;;;;;;;;;;;;;;5110397;28;1998;-39
2022/12/10 06:40:21;;;;;;;;;;;;;;;;;;5090499;28;1750;-40
2022/12/10 06:42:51;;;;;;;;;;;;;;;;;;5090979;28;1274;-40
2022/12/10 06:45:18;;;;;;;;;;;;;;;;;;5090847;28;1995;-40
2022/12/10 06:47:45;;;;;;;;;;;;;;;;;;5090807;28;1610;-48
2022/12/10 06:50:12;;;;;;;;;;;;;;;;;;5091099;28;1743;-41
2022/12/10 06:52:40;;;;;;;;;;;;;;;;;;5094346;28;1517;-40
2022/12/10 06:55:07;;;;;;;;;;;;;;;;;;5094294;28;1912;-41
2022/12/10 06:57:34;;;;;;;;;;;;;;;;;;5094407;28;1922;-40
2022/12/10 07:00:02;;;;;;;;;;;;;;;;;;5076040;28;1967;-41
2022/12/10 07:02:29;;;;;;;;;;;;;;;;;;5094325;28;2133;-42
2022/12/10 07:04:56;;;;;;;;;;;;;;;;;;5094191;28;2109;-40
2022/12/10 07:07:23;;;;;;;;;;;;;;;;;;5094373;28;1384;-40
2022/12/10 07:09:51;;;;;;;;;;;;;;;;;;5094210;28;1801;-40
2022/12/10 07:12:18;;;;;;;;;;;;;;;;;;5094356;28;1470;-41
2022/12/10 07:14:45;;;;;;;;;;;;;;;;;;5093983;28;1912;-40
2022/12/10 07:17:12;;;;;;;;;;;;;;;;;;5093964;28;2282;-41
2022/12/10 07:19:39;;;;;;;;;;;;;;;;;;5095359;28;2029;-41
2022/12/10 07:22:06;;;;;;;;;;;;;;;;;;5114076;28;1306;-40
2022/12/10 07:24:33;;;;;;;;;;;;;;;;;;5114036;28;2118;-41
2022/12/10 07:27:04;;;;;;;;;;;;;;;;;;5114127;28;2064;-41
2022/12/10 07:29:31;;;;;;;;;;;;;;;;;;5114171;28;2127;-40
2022/12/10 07:31:58;;;;;;;;;;;;;;;;;;5112972;28;1845;-40
2022/12/10 07:34:25;;;;;;;;;;;;;;;;;;5111234;28;1934;-40
2022/12/10 07:36:52;;;;;;;;;;;;;;;;;;5112257;28;2038;-40
2022/12/10 07:39:19;;;;;;;;;;;;;;;;;;5112399;28;1827;-41
2022/12/10 07:41:47;;;;;;;;;;;;;;;;;;5093678;28;2168;-40
2022/12/10 07:44:14;;;;;;;;;;;;;;;;;;5111954;28;1902;-41
2022/12/10 07:46:41;;;;;;;;;;;;;;;;;;5112093;28;1782;-40
2022/12/10 07:49:08;;;;;;;;;;;;;;;;;;5113263;28;1897;-40
2022/12/10 07:51:35;;;;;;;;;;;;;;;;;;5113801;28;1735;-45
2022/12/10 07:54:02;;;;;;;;;;;;;;;;;;5103243;28;2274;-40
2022/12/10 07:56:30;;;;;;;;;;;;;;;;;;5075098;28;2019;-41
2022/12/10 07:58:57;;;;;;;;;;;;;;;;;;5093233;28;1791;-41
2022/12/10 08:01:25;;;;;;;;;;;;;;;;;;5093196;28;2000;-41
2022/12/10 08:03:58;;;;;;;;;;;;;;;;;;5092326;28;1985;-40
2022/12/10 08:06:26;;;;;;;;;;;;;;;;;;5093007;28;1950;-41
2022/12/10 08:08:54;;;;;;;;;;;;;;;;;;5093128;28;1857;-40
2022/12/10 08:11:21;;;;;;;;;;;;;;;;;;5092752;28;1899;-40
2022/12/10 08:13:49;;;;;;;;;;;;;;;;;;5092719;28;2102;-40
2022/12/10 08:16:24;;;;;;;;;;;;;;;;;;5092991;28;2051;-41
2022/12/10 08:18:52;;;;;;;;;;;;;;;;;;5074822;28;2118;-41
2022/12/10 08:21:20;;;;;;;;;;;;;;;;;;5108369;28;1477;-41
2022/12/10 08:23:48;;;;;;;;;;;;;;;;;;5112990;28;2054;-40
2022/12/10 08:26:18;;;;;;;;;;;;;;;;;;5113213;28;1988;-40
2022/12/10 08:28:46;;;;;;;;;;;;;;;;;;5112969;28;1853;-41
2022/12/10 08:31:15;;;;;;;;;;;;;;;;;;5112883;28;1867;-40
2022/12/10 08:33:42;;;;;;;;;;;;;;;;;;5112661;28;1906;-41
2022/12/10 08:36:10;;;;;;;;;;;;;;;;;;5112828;28;2321;-40
2022/12/10 08:38:38;;;;;;;;;;;;;;;;;;5112781;28;2013;-41
2022/12/10 08:41:06;;;;;;;;;;;;;;;;;;5112921;28;2325;-40
2022/12/10 08:43:33;;;;;;;;;;;;;;;;;;5112769;28;1663;-40
2022/12/10 08:46:00;;;;;;;;;;;;;;;;;;5112560;28;1431;-40
2022/12/10 08:48:27;;;;;;;;;;;;;;;;;;5112509;28;1870;-40
2022/12/10 08:50:54;;;;;;;;;;;;;;;;;;5112898;28;1617;-40
2022/12/10 08:53:22;;;;;;;;;;;;;;;;;;5112224;28;1971;-40
2022/12/10 08:55:50;;;;;;;;;;;;;;;;;;5112868;28;2169;-41
2022/12/10 08:58:17;;;;;;;;;;;;;;;;;;5112508;28;1523;-41
2022/12/10 09:00:44;;;;;;;;;;;;;;;;;;5112438;28;2044;-40
2022/12/10 09:03:12;;;;;;;;;;;;;;;;;;5112280;28;2019;-40
2022/12/10 09:05:39;;;;;;;;;;;;;;;;;;5112032;28;2143;-41
2022/12/10 09:08:06;;;;;;;;;;;;;;;;;;5112415;28;2043;-41
2022/12/10 09:10:35;;;;;;;;;;;;;;;;;;5112314;28;1624;-40
2022/12/10 09:13:02;;;;;;;;;;;;;;;;;;5112024;28;1769;-41
2022/12/10 09:15:29;;;;;;;;;;;;;;;;;;5112184;28;2047;-41
2022/12/10 09:17:57;;;;;;;;;;;;;;;;;;5112235;28;1962;-39
2022/12/10 09:20:24;;;;;;;;;;;;;;;;;;5103785;28;1844;-40
2022/12/10 09:22:51;;;;;;;;;;;;;;;;;;5091778;28;1503;-40
2022/12/10 09:25:21;;;;;;;;;;;;;;;;;;5091559;28;2164;-40
2022/12/10 09:27:48;;;;;;;;;;;;;;;;;;5091542;28;1812;-41
2022/12/10 09:30:15;;;;;;;;;;;;;;;;;;5091222;28;1839;-40
2022/12/10 09:32:42;;;;;;;;;;;;;;;;;;5091304;28;2022;-40
2022/12/10 09:35:09;;;;;;;;;;;;;;;;;;5091403;28;1977;-40
2022/12/10 09:37:36;;;;;;;;;;;;;;;;;;5091189;28;1912;-40
2022/12/10 09:40:04;;;;;;;;;;;;;;;;;;5091388;28;1818;-40
2022/12/10 09:42:34;;;;;;;;;;;;;;;;;;5091385;28;1873;-41
2022/12/10 09:45:17;;;;;;;;;;;;;;;;;;5091657;28;1501;-40
2022/12/10 09:47:51;;;;;;;;;;;;;;;;;;5091327;28;1535;-40
2022/12/10 09:50:18;;;;;;;;;;;;;;;;;;5091699;28;1936;-40
2022/12/10 09:52:47;;;;;;;;;;;;;;;;;;5091217;28;2000;-41
2022/12/10 09:55:16;;;;;;;;;;;;;;;;;;5091191;28;1981;-40
2022/12/10 09:57:46;;;;;;;;;;;;;;;;;;5091207;28;1738;-40
2022/12/10 10:00:29;;;;;;;;;;;;;;;;;;5090875;28;1841;-40
2022/12/10 10:03:01;;;;;;;;;;;;;;;;;;5091667;28;1291;-39
2022/12/10 10:05:34;;;;;;;;;;;;;;;;;;5091012;28;1927;-39
2022/12/10 10:08:03;;;;;;;;;;;;;;;;;;5091103;28;1561;-41
2022/12/10 10:10:32;;;;;;;;;;;;;;;;;;5091145;28;1983;-40
2022/12/10 10:13:08;;;;;;;;;;;;;;;;;;5091408;28;1992;-40
2022/12/10 10:15:37;;;;;;;;;;;;;;;;;;5090665;28;2000;-40
2022/12/10 10:18:22;;;;;;;;;;;;;;;;;;5091022;28;2446;-40
2022/12/10 10:20:50;;;;;;;;;;;;;;;;;;5090875;28;1512;-40
2022/12/10 10:23:17;;;;;;;;;;;;;;;;;;5089847;28;1814;-41
2022/12/10 10:25:44;;;;;;;;;;;;;;;;;;5091984;28;1442;-40
2022/12/10 10:28:13;;;;;;;;;;;;;;;;;;5094751;28;1922;-40
2022/12/10 10:30:42;;;;;;;;;;;;;;;;;;5094844;28;1663;-40
2022/12/10 10:33:10;;;;;;;;;;;;;;;;;;5094990;28;2236;-40
2022/12/10 10:35:48;;;;;;;;;;;;;;;;;;5094802;28;1919;-40
2022/12/10 10:38:20;;;;;;;;;;;;;;;;;;5094725;28;1644;-41
2022/12/10 10:40:56;;;;;;;;;;;;;;;;;;5094584;28;1824;-41
2022/12/10 10:43:24;;;;;;;;;;;;;;;;;;5094816;28;1617;-40
2022/12/10 10:46:15;;;;;;;;;;;;;;;;;;5094666;28;1649;-41
2022/12/10 10:48:42;;;;;;;;;;;;;;;;;;5084566;28;1783;-40
2022/12/10 10:51:12;;;;;;;;;;;;;;;;;;5094647;28;1523;-39
2022/12/10 10:53:39;;;;;;;;;;;;;;;;;;5094068;28;2318;-41
2022/12/10 10:56:19;;;;;;;;;;;;;;;;;;5094696;28;1964;-41
2022/12/10 10:58:49;;;;;;;;;;;;;;;;;;5093868;28;1783;-39
2022/12/10 11:01:17;;;;;;;;;;;;;;;;;;5094266;28;1835;-41
2022/12/10 11:03:53;;;;;;;;;;;;;;;;;;5093855;28;1792;-41
2022/12/10 11:06:20;;;;;;;;;;;;;;;;;;5076223;28;1385;-40
2022/12/10 11:08:51;;;;;;;;;;;;;;;;;;5093896;28;2005;-41
2022/12/10 11:11:18;;;;;;;;;;;;;;;;;;5094385;28;2113;-42
2022/12/10 11:13:45;;;;;;;;;;;;;;;;;;5094048;28;1726;-40
2022/12/10 11:16:15;;;;;;;;;;;;;;;;;;5093955;28;1906;-39
2022/12/10 11:18:50;;;;;;;;;;;;;;;;;;5094051;28;1671;-40
2022/12/10 11:21:21;;;;;;;;;;;;;;;;;;5093783;28;1962;-42
2022/12/10 11:23:52;;;;;;;;;;;;;;;;;;5093602;28;1929;-40
2022/12/10 11:26:42;;;;;;;;;;;;;;;;;;5093773;28;2302;-40
2022/12/10 11:29:18;;;;;;;;;;;;;;;;;;5093742;28;1639;-40
2022/12/10 11:31:54;;;;;;;;;;;;;;;;;;5093608;28;1891;-46
2022/12/10 11:34:40;;;;;;;;;;;;;;;;;;5093666;28;1907;-40
2022/12/10 11:37:15;;;;;;;;;;;;;;;;;;5093526;28;1829;-40
2022/12/10 11:39:51;;;;;;;;;;;;;;;;;;5093549;28;2125;-40
2022/12/10 11:42:37;;;;;;;;;;;;;;;;;;5093356;28;1706;-40
2022/12/10 11:45:14;;;;;;;;;;;;;;;;;;5093354;28;2154;-41
2022/12/10 11:47:44;;;;;;;;;;;;;;;;;;5093152;28;1436;-41
2022/12/10 11:50:27;;;;;;;;;;;;;;;;;;5093407;28;1776;-41
2022/12/10 11:53:04;;;;;;;;;;;;;;;;;;5093294;28;1421;-40
2022/12/10 11:55:37;;;;;;;;;;;;;;;;;;5093346;28;2140;-41
2022/12/10 11:58:13;;;;;;;;;;;;;;;;;;5092902;28;1827;-40
2022/12/10 12:01:00;;;;;;;;;;;;;;;;;;5093533;28;1930;-40
2022/12/10 12:03:32;;;;;;;;;;;;;;;;;;5093075;28;1808;-39
2022/12/10 12:05:59;;;;;;;;;;;;;;;;;;5092819;28;1844;-40
2022/12/10 12:08:59;;;;;;;;;;;;;;;;;;5092557;28;2070;-40
2022/12/10 12:11:37;;;;;;;;;;;;;;;;;;5073022;28;1701;-40
2022/12/10 12:14:33;;;;;;;;;;;;;;;;;;5093059;28;1871;-41
2022/12/10 12:17:19;;;;;;;;;;;;;;;;;;5079524;28;1442;-40
2022/12/10 12:19:57;;;;;;;;;;;;;;;;;;5095499;28;1854;-41
2022/12/10 12:22:25;;;;;;;;;;;;;;;;;;5113047;28;1693;-40
2022/12/10 12:24:55;;;;;;;;;;;;;;;;;;5113142;28;1815;-42
2022/12/10 12:27:26;;;;;;;;;;;;;;;;;;5112842;28;1717;-40
2022/12/10 12:29:59;;;;;;;;;;;;;;;;;;5112942;28;1820;-40
2022/12/10 12:32:59;;;;;;;;;;;;;;;;;;5112710;28;1822;-40
2022/12/10 12:35:39;;;;;;;;;;;;;;;;;;5057830;28;1932;-41
2022/12/10 12:38:17;;;;;;;;;;;;;;;;;;5112743;28;1629;-40
2022/12/10 12:40:53;;;;;;;;;;;;;;;;;;5112870;28;1675;-40
2022/12/10 12:43:35;;;;;;;;;;;;;;;;;;5112825;28;1215;-40
2022/12/10 12:46:08;;;;;;;;;;;;;;;;;;5112740;28;1940;-40
2022/12/10 12:48:41;;;;;;;;;;;;;;;;;;5111813;28;1981;-40
2022/12/10 12:51:22;;;;;;;;;;;;;;;;;;5112783;28;1981;-40
2022/12/10 12:53:49;;;;;;;;;;;;;;;;;;5112571;28;1664;-41
2022/12/10 12:56:35;;;;;;;;;;;;;;;;;;5112214;28;1910;-40
2022/12/10 12:59:12;;;;;;;;;;;;;;;;;;5112530;28;2097;-41
2022/12/10 13:01:53;;;;;;;;;;;;;;;;;;5112476;28;1645;-41
2022/12/10 13:04:21;;;;;;;;;;;;;;;;;;5112034;28;1445;-40
2022/12/10 13:07:14;;;;;;;;;;;;;;;;;;5112121;28;2120;-40
2022/12/10 13:09:46;;;;;;;;;;;;;;;;;;5061035;28;1807;-41
2022/12/10 13:12:18;;;;;;;;;;;;;;;;;;5092165;28;2249;-40
2022/12/10 13:14:48;;;;;;;;;;;;;;;;;;5091968;28;2170;-40
2022/12/10 13:17:27;;;;;;;;;;;;;;;;;;5091690;28;1821;-40
2022/12/10 13:20:14;;;;;;;;;;;;;;;;;;5091766;28;1705;-41
2022/12/10 13:22:44;;;;;;;;;;;;;;;;;;5091848;28;2180;-40
2022/12/10 13:25:15;;;;;;;;;;;;;;;;;;5091726;28;2119;-40
2022/12/10 13:27:54;;;;;;;;;;;;;;;;;;5091452;28;2078;-40
2022/12/10 13:30:33;;;;;;;;;;;;;;;;;;5091509;28;1775;-40
2022/12/10 13:33:19;;;;;;;;;;;;;;;;;;5091482;28;1848;-40
2022/12/10 13:35:55;;;;;;;;;;;;;;;;;;5091554;28;1907;-40
2022/12/10 13:38:23;;;;;;;;;;;;;;;;;;5073080;28;1543;-41
2022/12/10 13:46:52;;;;;;;;;;;;;;;;;;5073035;28;1865;-40
2022/12/10 13:49:23;;;;;;;;;;;;;;;;;;5091172;28;1922;-40
2022/12/10 13:51:56;;;;;;;;;;;;;;;;;;5091259;28;1721;-40
2022/12/10 13:54:36;;;;;;;;;;;;;;;;;;5091349;28;1852;-42
2022/12/10 13:57:05;;;;;;;;;;;;;;;;;;5091250;28;1490;-41
2022/12/10 13:59:51;;;;;;;;;;;;;;;;;;5090916;28;1828;-40
2022/12/10 14:02:45;;;;;;;;;;;;;;;;;;5095031;28;2340;-41
2022/12/10 14:05:12;;;;;;;;;;;;;;;;;;5091223;28;2049;-40
2022/12/10 14:07:39;;;;;;;;;;;;;;;;;;5095368;28;2100;-41
2022/12/10 14:10:11;;;;;;;;;;;;;;;;;;5095386;28;1912;-40
2022/12/10 14:12:41;;;;;;;;;;;;;;;;;;5095136;28;2503;-39
2022/12/10 14:15:14;;;;;;;;;;;;;;;;;;5095137;28;2059;-40
2022/12/10 14:17:42;;;;;;;;;;;;;;;;;;5094928;28;2037;-40
2022/12/10 14:20:25;;;;;;;;;;;;;;;;;;5095149;28;2183;-41
2022/12/10 14:23:32;;;;;;;;;;;;;;;;;;5094919;28;1596;-40
2022/12/10 14:25:41;;;;;;;;;;;;;;;;;;5106332;28;1495;-42
2022/12/10 14:28:13;;;;;;;;;;;;;;;;;;5114445;28;1696;-40
2022/12/10 14:30:44;;;;;;;;;;;;;;;;;;5114853;28;1820;-41
2022/12/10 14:33:19;;;;;;;;;;;;;;;;;;5114905;28;2177;-40
2022/12/10 14:35:47;;;;;;;;;;;;;;;;;;5115042;28;1912;-41
2022/12/10 14:38:17;;;;;;;;;;;;;;;;;;5115160;28;1723;-41
2022/12/10 14:40:47;;;;;;;;;;;;;;;;;;5115067;28;1667;-41
2022/12/10 14:43:17;;;;;;;;;;;;;;;;;;5114875;28;1812;-41
2022/12/10 14:45:55;;;;;;;;;;;;;;;;;;5114930;28;1836;-40
2022/12/10 14:48:23;;;;;;;;;;;;;;;;;;5114965;28;1635;-40
2022/12/10 14:50:50;;;;;;;;;;;;;;;;;;5115275;28;1962;-40
2022/12/10 14:53:19;;;;;;;;;;;;;;;;;;5081590;28;1750;-40
2022/12/10 14:55:55;;;;;;;;;;;;;;;;;;5094455;28;2161;-40
2022/12/10 14:58:28;;;;;;;;;;;;;;;;;;5094517;28;1924;-40
2022/12/10 15:00:57;;;;;;;;;;;;;;;;;;5094288;28;2067;-41
2022/12/10 15:03:27;;;;;;;;;;;;;;;;;;5096666;28;1562;-42
2022/12/10 15:05:55;;;;;;;;;;;;;;;;;;5094001;28;2225;-41
2022/12/10 15:08:25;;;;;;;;;;;;;;;;;;5076767;28;2076;-41
2022/12/10 15:10:55;;;;;;;;;;;;;;;;;;5094300;28;1911;-40
2022/12/10 15:13:27;;;;;;;;;;;;;;;;;;5109988;28;1714;-42
2022/12/10 15:15:55;;;;;;;;;;;;;;;;;;5113948;28;1996;-41
2022/12/10 15:18:31;;;;;;;;;;;;;;;;;;5096427;28;1866;-40
2022/12/10 15:21:13;;;;;;;;;;;;;;;;;;5101525;28;1830;-40
2022/12/10 15:23:40;;;;;;;;;;;;;;;;;;5094292;28;2058;-41
2022/12/10 15:26:18;;;;;;;;;;;;;;;;;;5094137;28;1643;-41
2022/12/10 15:28:46;;;;;;;;;;;;;;;;;;5093675;28;2300;-41
2022/12/10 15:31:19;;;;;;;;;;;;;;;;;;5093856;28;1534;-41
2022/12/10 15:33:47;;;;;;;;;;;;;;;;;;5093717;28;2116;-40
2022/12/10 15:36:17;;;;;;;;;;;;;;;;;;5093652;28;1949;-40
2022/12/10 15:38:44;;;;;;;;;;;;;;;;;;5093282;28;2168;-40
2022/12/10 15:41:32;;;;;;;;;;;;;;;;;;5075697;28;1571;-41
2022/12/10 15:44:04;;;;;;;;;;;;;;;;;;5093499;28;2112;-40
2022/12/10 15:46:32;;;;;;;;;;;;;;;;;;5093562;28;1844;-41
2022/12/10 15:48:59;;;;;;;;;;;;;;;;;;5093634;28;2137;-41
2022/12/10 15:51:26;;;;;;;;;;;;;;;;;;5093460;28;1751;-40
2022/12/10 15:53:53;;;;;;;;;;;;;;;;;;5093514;28;1491;-41
2022/12/10 15:56:20;;;;;;;;;;;;;;;;;;5093070;28;1993;-41
2022/12/10 15:58:47;;;;;;;;;;;;;;;;;;5093344;28;1871;-40
2022/12/10 16:01:15;;;;;;;;;;;;;;;;;;5093339;28;1913;-40
2022/12/10 16:03:43;;;;;;;;;;;;;;;;;;5093060;28;1736;-40
2022/12/10 16:06:10;;;;;;;;;;;;;;;;;;5092621;28;2105;-40
2022/12/10 16:08:41;;;;;;;;;;;;;;;;;;5092920;28;1965;-41
2022/12/10 16:11:14;;;;;;;;;;;;;;;;;;5093067;28;1490;-41
2022/12/10 16:13:45;;;;;;;;;;;;;;;;;;5092874;28;1825;-40
2022/12/10 16:16:13;;;;;;;;;;;;;;;;;;5092755;28;1903;-41
2022/12/10 16:18:41;;;;;;;;;;;;;;;;;;5092759;28;1416;-41
2022/12/10 16:21:08;;;;;;;;;;;;;;;;;;5106754;28;2378;-39
2022/12/10 16:23:35;;;;;;;;;;;;;;;;;;5112403;28;2105;-41
2022/12/10 16:26:07;;;;;;;;;;;;;;;;;;5112969;28;2360;-41
2022/12/10 16:28:34;;;;;;;;;;;;;;;;;;5113279;28;1983;-41
2022/12/10 16:31:02;;;;;;;;;;;;;;;;;;5112783;28;1905;-40
2022/12/10 16:33:29;;;;;;;;;;;;;;;;;;5112929;28;1527;-42
2022/12/10 16:36:01;;;;;;;;;;;;;;;;;;5112566;28;1964;-41
2022/12/10 16:38:28;;;;;;;;;;;;;;;;;;5112761;28;2087;-40
2022/12/10 16:40:55;;;;;;;;;;;;;;;;;;5112845;28;2186;-40
2022/12/10 16:43:25;;;;;;;;;;;;;;;;;;5112552;28;1753;-41
2022/12/10 16:45:52;;;;;;;;;;;;;;;;;;5112553;28;1792;-40
2022/12/10 16:48:19;;;;;;;;;;;;;;;;;;5112501;28;1438;-40
2022/12/10 16:50:46;;;;;;;;;;;;;;;;;;5112435;28;2039;-40
2022/12/10 16:53:18;;;;;;;;;;;;;;;;;;5112512;28;1629;-41
2022/12/10 16:55:46;;;;;;;;;;;;;;;;;;5112517;28;1901;-42
2022/12/10 16:58:16;;;;;;;;;;;;;;;;;;5112492;28;1639;-41
2022/12/10 17:00:45;;;;;;;;;;;;;;;;;;5112161;28;1561;-41
2022/12/10 17:03:21;;;;;;;;;;;;;;;;;;5112424;28;1604;-43
2022/12/10 17:05:54;;;;;;;;;;;;;;;;;;5112004;28;2232;-41
2022/12/10 17:08:22;;;;;;;;;;;;;;;;;;5112273;28;1824;-40
2022/12/10 17:13:35;;;;;;;;;;;;;;;;;;5112331;28;2040;-40
2022/12/10 17:16:03;;;;;;;;;;;;;;;;;;5111705;28;1972;-40
2022/12/10 17:18:31;;;;;;;;;;;;;;;;;;5112418;28;2080;-41
2022/12/10 17:20:58;;;;;;;;;;;;;;;;;;5099324;28;1884;-39
2022/12/10 17:23:25;;;;;;;;;;;;;;;;;;5073591;28;2054;-41
2022/12/10 17:25:52;;;;;;;;;;;;;;;;;;5091805;28;1991;-40
2022/12/10 17:28:21;;;;;;;;;;;;;;;;;;5091775;28;1724;-41
2022/12/10 17:30:48;;;;;;;;;;;;;;;;;;5073217;28;2447;-45
2022/12/10 17:33:18;;;;;;;;;;;;;;;;;;5091661;28;1603;-41
2022/12/10 17:35:46;;;;;;;;;;;;;;;;;;5091117;28;1954;-42
2022/12/10 17:38:14;;;;;;;;;;;;;;;;;;5092459;28;1870;-41
2022/12/10 17:40:41;;;;;;;;;;;;;;;;;;5092152;28;1467;-40
2022/12/10 17:43:09;;;;;;;;;;;;;;;;;;5091572;28;1560;-40